createdAt,value
2022-10-19T00:00:25.346Z,90.15
2022-10-19T00:02:51.908Z,90.01
2022-10-19T00:05:18.451Z,89.77
2022-10-19T00:07:44.918Z,89.94
2022-10-19T00:10:11.651Z,89.55
2022-10-19T00:12:38.823Z,89.63
2022-10-19T00:15:06.501Z,89.70
2022-10-19T00:17:34.776Z,89.99
2022-10-19T00:20:01.430Z,90.36
2022-10-19T00:22:27.867Z,90.14
2022-10-19T00:24:56.858Z,90.25
2022-10-19T00:27:23.355Z,90.12
2022-10-19T00:29:49.748Z,90.68
2022-10-19T00:32:16.146Z,90.67
2022-10-19T00:34:42.615Z,90.57
2022-10-19T00:37:09.067Z,90.39
2022-10-19T00:39:35.482Z,90.40
2022-10-19T00:42:01.943Z,91.02
2022-10-19T00:44:28.447Z,91.36
2022-10-19T00:46:59.082Z,91.49
2022-10-19T00:49:33.203Z,90.85
2022-10-19T00:52:06.114Z,90.96
2022-10-19T00:54:33.814Z,90.95
2022-10-19T00:57:00.570Z,90.84
2022-10-19T00:59:31.741Z,90.71
2022-10-19T01:01:59.011Z,91.22
2022-10-19T01:04:27.089Z,91.19
2022-10-19T01:06:54.818Z,91.29
2022-10-19T01:09:21.418Z,91.12
2022-10-19T01:11:53.758Z,90.69
2022-10-19T01:14:38.474Z,90.62
2022-10-19T01:17:36.151Z,90.90
2022-10-19T01:20:05.824Z,91.76
2022-10-19T01:22:46.680Z,91.38
2022-10-19T01:25:19.187Z,91.60
2022-10-19T01:28:29.722Z,91.48
2022-10-19T01:31:02.068Z,91.48
2022-10-19T01:33:34.576Z,91.10
2022-10-19T01:36:26.986Z,91.74
2022-10-19T01:39:30.620Z,91.93
2022-10-19T01:42:01.428Z,92.02
2022-10-19T01:44:31.363Z,91.55
2022-10-19T01:47:07.558Z,91.48
2022-10-19T01:49:51.189Z,91.29
2022-10-19T01:52:20.712Z,91.01
2022-10-19T01:54:51.257Z,91.01
2022-10-19T01:57:23.948Z,90.85
2022-10-19T01:59:51.474Z,90.79
2022-10-19T02:02:19.825Z,90.87
2022-10-19T02:04:48.963Z,91.05
2022-10-19T02:07:16.252Z,91.49
2022-10-19T02:09:42.740Z,90.73
2022-10-19T02:12:11.158Z,90.75
2022-10-19T02:14:43.010Z,91.30
2022-10-19T02:17:14.150Z,90.94
2022-10-19T02:19:42.854Z,91.15
2022-10-19T02:22:09.695Z,91.85
2022-10-19T02:24:36.161Z,91.58
2022-10-19T02:27:05.556Z,91.60
2022-10-19T02:29:34.417Z,92.24
2022-10-19T02:32:01.413Z,91.76
2022-10-19T02:34:28.192Z,91.70
2022-10-19T02:36:55.880Z,91.89
2022-10-19T02:39:22.821Z,91.70
2022-10-19T02:41:57.363Z,91.82
2022-10-19T02:44:31.724Z,91.78
2022-10-19T02:47:06.672Z,91.82
2022-10-19T02:49:35.328Z,92.04
2022-10-19T02:52:05.703Z,91.37
2022-10-19T02:54:32.601Z,91.45
2022-10-19T02:56:59.355Z,91.43
2022-10-19T02:59:26.199Z,91.29
2022-10-19T03:01:52.836Z,91.36
2022-10-19T03:04:19.439Z,91.10
2022-10-19T03:06:45.965Z,91.12
2022-10-19T03:09:12.403Z,91.37
2022-10-19T03:11:38.974Z,91.31
2022-10-19T03:14:05.394Z,91.80
2022-10-19T03:16:31.868Z,91.83
2022-10-19T03:18:58.392Z,92.06
2022-10-19T03:21:24.792Z,91.52
2022-10-19T03:23:51.250Z,91.66
2022-10-19T03:26:18.268Z,91.91
2022-10-19T03:28:46.926Z,91.82
2022-10-19T03:31:13.425Z,91.35
2022-10-19T03:33:39.935Z,91.30
2022-10-19T03:36:34.265Z,91.19
2022-10-19T03:39:03.942Z,91.71
2022-10-19T03:41:33.054Z,91.34
2022-10-19T03:46:32.199Z,91.53
2022-10-19T03:48:58.665Z,90.93
2022-10-19T03:51:28.179Z,91.19
2022-10-19T03:53:56.412Z,91.08
2022-10-19T03:56:25.040Z,90.86
2022-10-19T03:58:52.661Z,90.41
2022-10-19T04:01:45.740Z,91.13
2022-10-19T04:04:15.228Z,90.89
2022-10-19T04:06:45.334Z,90.94
2022-10-19T04:09:14.622Z,90.61
2022-10-19T04:11:42.149Z,91.00
2022-10-19T04:16:36.195Z,90.61
2022-10-19T04:19:02.741Z,91.08
2022-10-19T04:21:31.693Z,90.88
2022-10-19T04:24:01.175Z,91.00
2022-10-19T04:26:28.382Z,91.34
2022-10-19T04:28:57.809Z,90.99
2022-10-19T04:31:24.901Z,91.51
2022-10-19T04:33:51.354Z,91.22
2022-10-19T04:36:17.918Z,91.92
2022-10-19T04:38:44.437Z,91.62
2022-10-19T04:41:13.941Z,91.28
2022-10-19T04:43:40.750Z,91.06
2022-10-19T04:46:13.306Z,91.36
2022-10-19T04:48:40.779Z,91.50
2022-10-19T04:51:08.011Z,91.29
2022-10-19T04:53:35.405Z,91.89
2022-10-19T04:56:05.926Z,92.11
2022-10-19T04:58:32.480Z,91.73
2022-10-19T05:00:59.081Z,92.29
2022-10-19T05:03:25.562Z,91.92
2022-10-19T05:05:51.984Z,91.95
2022-10-19T05:08:18.461Z,92.29
2022-10-19T05:10:47.649Z,92.05
2022-10-19T05:13:14.870Z,92.06
2022-10-19T05:15:41.478Z,92.22
2022-10-19T05:18:08.028Z,92.70
2022-10-19T05:20:34.545Z,92.63
2022-10-19T05:23:06.153Z,92.82
2022-10-19T05:25:33.826Z,92.57
2022-10-19T05:28:00.313Z,92.74
2022-10-19T05:30:26.840Z,92.66
2022-10-19T05:32:53.292Z,92.61
2022-10-19T05:35:22.418Z,92.50
2022-10-19T05:37:49.270Z,92.48
2022-10-19T05:40:15.795Z,92.18
2022-10-19T05:42:42.235Z,92.53
2022-10-19T05:45:09.091Z,92.48
2022-10-19T05:47:35.808Z,92.38
2022-10-19T05:50:02.802Z,92.60
2022-10-19T05:52:29.516Z,92.47
2022-10-19T05:54:58.249Z,92.60
2022-10-19T05:57:25.574Z,92.63
2022-10-19T05:59:52.053Z,92.43
2022-10-19T06:02:20.795Z,92.23
2022-10-19T06:04:47.107Z,92.58
2022-10-19T06:07:13.670Z,92.59
2022-10-19T06:09:40.238Z,92.27
2022-10-19T06:12:06.812Z,92.88
2022-10-19T06:14:33.342Z,92.71
2022-10-19T06:16:59.807Z,92.81
2022-10-19T06:19:26.334Z,93.21
2022-10-19T06:21:52.809Z,93.49
2022-10-19T06:24:19.218Z,93.02
2022-10-19T06:26:45.767Z,92.95
2022-10-19T06:29:12.363Z,93.21
2022-10-19T06:31:38.937Z,92.93
2022-10-19T06:34:05.788Z,93.29
2022-10-19T06:36:33.013Z,93.17
2022-10-19T06:39:01.582Z,92.91
2022-10-19T06:41:30.598Z,92.88
2022-10-19T06:43:57.257Z,93.21
2022-10-19T06:46:25.990Z,93.42
2022-10-19T06:48:53.373Z,93.04
2022-10-19T06:51:20.730Z,93.09
2022-10-19T06:53:47.239Z,92.94
2022-10-19T06:56:14.020Z,92.90
2022-10-19T06:58:40.763Z,92.94
2022-10-19T07:01:10.119Z,93.02
2022-10-19T07:03:37.286Z,93.21
2022-10-19T07:06:06.937Z,93.81
2022-10-19T07:08:34.908Z,93.42
2022-10-19T07:11:05.157Z,94.30
2022-10-19T07:13:31.841Z,94.41
2022-10-19T07:16:05.499Z,94.42
2022-10-19T07:18:33.446Z,94.33
2022-10-19T07:21:01.989Z,94.07
2022-10-19T07:23:29.735Z,94.48
2022-10-19T07:26:01.460Z,94.30
2022-10-19T07:28:29.606Z,94.51
2022-10-19T07:30:56.431Z,94.77
2022-10-19T07:33:23.735Z,94.86
2022-10-19T07:35:50.333Z,94.84
2022-10-19T07:38:16.863Z,95.38
2022-10-19T07:40:46.423Z,96.01
2022-10-19T07:43:14.007Z,96.59
2022-10-19T07:45:40.543Z,97.17
2022-10-19T07:48:07.202Z,97.74
2022-10-19T07:50:33.809Z,97.97
2022-10-19T07:53:00.308Z,98.07
2022-10-19T07:55:26.740Z,98.22
2022-10-19T07:57:53.262Z,98.75
2022-10-19T08:00:19.725Z,98.70
2022-10-19T08:02:57.721Z,99.35
2022-10-19T08:05:26.564Z,99.65
2022-10-19T08:07:53.030Z,100.00
2022-10-19T08:10:19.517Z,100.00
2022-10-19T08:12:46.053Z,100.00
2022-10-19T08:15:12.558Z,100.00
2022-10-19T08:17:39.807Z,100.00
2022-10-19T08:20:07.721Z,100.00
2022-10-19T08:22:34.644Z,100.00
2022-10-19T08:25:04.734Z,100.00
2022-10-19T08:27:31.288Z,100.00
2022-10-19T08:29:57.843Z,100.00
2022-10-19T08:32:24.395Z,100.00
2022-10-19T08:34:50.818Z,100.00
2022-10-19T08:37:26.410Z,100.00
2022-10-19T08:40:04.283Z,100.00
2022-10-19T08:42:59.875Z,100.00
2022-10-19T08:45:37.291Z,100.00
2022-10-19T08:48:15.261Z,100.00
2022-10-19T08:50:45.263Z,100.00
2022-10-19T08:53:59.778Z,100.00
2022-10-19T08:56:50.649Z,100.00
2022-10-19T08:59:39.020Z,100.00
2022-10-19T09:02:38.060Z,100.00
2022-10-19T09:05:09.749Z,100.00
2022-10-19T09:07:45.531Z,100.00
2022-10-19T09:10:17.849Z,100.00
2022-10-19T09:13:07.540Z,100.00
2022-10-19T09:15:41.476Z,100.00
2022-10-19T09:18:30.803Z,100.00
2022-10-19T09:21:08.551Z,100.00
2022-10-19T09:23:39.802Z,100.00
2022-10-19T09:26:14.934Z,100.00
2022-10-19T09:28:44.347Z,100.00
2022-10-19T09:31:19.508Z,100.00
2022-10-19T09:33:55.523Z,100.00
2022-10-19T09:36:33.229Z,99.70
2022-10-19T09:39:12.781Z,98.67
2022-10-19T09:41:55.101Z,98.07
2022-10-19T09:44:23.239Z,97.13
2022-10-19T09:47:19.981Z,96.16
2022-10-19T09:49:48.266Z,95.11
2022-10-19T09:52:34.179Z,94.70
2022-10-19T09:55:07.250Z,93.75
2022-10-19T09:57:42.926Z,93.30
2022-10-19T10:00:19.223Z,92.57
2022-10-19T10:02:50.735Z,92.02
2022-10-19T10:05:17.338Z,91.35
2022-10-19T10:07:44.507Z,91.39
2022-10-19T10:10:28.072Z,90.86
2022-10-19T10:12:59.756Z,89.79
2022-10-19T10:15:29.875Z,88.63
2022-10-19T10:17:57.228Z,88.50
2022-10-19T10:20:32.604Z,88.05
2022-10-19T10:23:04.652Z,87.78
2022-10-19T10:25:34.540Z,87.23
2022-10-19T10:28:15.192Z,87.36
2022-10-19T10:30:42.516Z,85.31
2022-10-19T10:33:33.186Z,84.92
2022-10-19T10:36:08.399Z,85.09
2022-10-19T10:38:44.876Z,84.35
2022-10-19T10:41:17.689Z,84.24
2022-10-19T10:44:04.994Z,84.30
2022-10-19T10:46:37.131Z,84.36
2022-10-19T10:49:06.866Z,84.50
2022-10-19T10:51:59.648Z,83.76
2022-10-19T10:54:29.991Z,82.65
2022-10-19T10:57:16.509Z,82.80
2022-10-19T11:00:02.238Z,82.93
2022-10-19T11:02:43.865Z,82.32
2022-10-19T11:05:17.875Z,81.80
2022-10-19T11:07:47.707Z,82.10
2022-10-19T11:10:25.505Z,81.23
2022-10-19T11:12:56.284Z,80.66
2022-10-19T11:15:27.869Z,80.88
2022-10-19T11:17:58.064Z,80.28
2022-10-19T11:20:29.583Z,79.39
2022-10-19T11:23:10.551Z,79.49
2022-10-19T11:25:49.377Z,78.79
2022-10-19T11:28:49.561Z,78.99
2022-10-19T11:31:24.675Z,77.26
2022-10-19T11:34:16.376Z,77.16
2022-10-19T11:36:58.152Z,76.64
2022-10-19T11:39:42.773Z,76.95
2022-10-19T11:42:26.388Z,75.81
2022-10-19T11:45:11.552Z,76.18
2022-10-19T11:48:09.456Z,76.72
2022-10-19T11:50:49.736Z,77.10
2022-10-19T11:54:00.233Z,75.05
2022-10-19T11:57:02.218Z,75.26
2022-10-19T12:00:08.644Z,74.42
2022-10-19T12:03:03.495Z,73.28
2022-10-19T12:05:56.219Z,73.41
2022-10-19T12:08:28.907Z,73.17
2022-10-19T12:10:55.337Z,73.18
2022-10-19T12:14:00.651Z,74.05
2022-10-19T12:16:53.061Z,73.04
2022-10-19T12:19:32.076Z,74.40
2022-10-19T12:22:01.590Z,73.22
2022-10-19T12:24:29.847Z,71.97
2022-10-19T12:26:57.686Z,72.08
2022-10-19T12:29:32.763Z,72.13
2022-10-19T12:32:00.987Z,71.44
2022-10-19T12:34:45.128Z,72.49
2022-10-19T12:37:19.945Z,71.53
2022-10-19T12:40:08.126Z,71.09
2022-10-19T12:42:52.965Z,71.41
2022-10-19T12:45:25.575Z,70.33
2022-10-19T12:48:14.355Z,70.60
2022-10-19T12:50:50.021Z,70.95
2022-10-19T12:55:59.867Z,69.59
2022-10-19T12:58:29.399Z,70.92
2022-10-19T13:01:01.025Z,70.45
2022-10-19T13:03:36.381Z,70.54
2022-10-19T13:06:12.712Z,70.11
2022-10-19T13:08:56.189Z,69.51
2022-10-19T13:11:23.291Z,68.91
2022-10-19T13:14:06.575Z,69.44
2022-10-19T13:16:40.878Z,68.97
2022-10-19T13:19:13.258Z,69.38
2022-10-19T13:21:54.884Z,68.18
2022-10-19T13:24:24.301Z,69.35
2022-10-19T13:26:59.897Z,69.23
2022-10-19T13:29:28.864Z,68.99
2022-10-19T13:31:55.494Z,69.34
2022-10-19T13:34:25.106Z,69.02
2022-10-19T13:37:02.823Z,69.44
2022-10-19T13:39:30.100Z,69.05
2022-10-19T13:41:57.398Z,68.73
2022-10-19T13:44:31.063Z,68.34
2022-10-19T13:47:12.671Z,69.06
2022-10-19T13:50:02.856Z,68.81
2022-10-19T13:52:41.523Z,67.51
2022-10-19T13:55:37.274Z,67.71
2022-10-19T13:58:51.399Z,68.20
2022-10-19T14:01:53.012Z,68.08
2022-10-19T14:04:28.952Z,68.58
2022-10-19T14:07:13.991Z,68.21
2022-10-19T14:10:06.502Z,68.49
2022-10-19T14:12:36.809Z,67.58
2022-10-19T14:15:19.835Z,67.27
2022-10-19T14:17:46.434Z,67.04
2022-10-19T14:20:32.896Z,68.36
2022-10-19T14:23:18.171Z,68.42
2022-10-19T14:25:57.057Z,68.36
2022-10-19T14:28:24.680Z,68.58
2022-10-19T14:30:57.193Z,68.16
2022-10-19T14:33:25.519Z,68.59
2022-10-19T14:35:52.790Z,68.67
2022-10-19T14:38:25.766Z,69.01
2022-10-19T14:40:52.269Z,69.00
2022-10-19T14:43:28.847Z,68.44
2022-10-19T14:46:07.300Z,68.44
2022-10-19T14:48:35.944Z,69.41
2022-10-19T14:51:09.971Z,69.23
2022-10-19T14:53:39.865Z,69.03
2022-10-19T14:56:15.314Z,69.61
2022-10-19T14:58:54.119Z,69.49
2022-10-19T15:01:21.539Z,69.94
2022-10-19T15:03:49.871Z,70.77
2022-10-19T15:06:30.106Z,70.39
2022-10-19T15:09:04.268Z,70.93
2022-10-19T15:11:37.584Z,71.07
2022-10-19T15:14:09.745Z,71.97
2022-10-19T15:16:57.475Z,71.59
2022-10-19T15:19:41.197Z,71.92
2022-10-19T15:22:20.285Z,72.03
2022-10-19T15:24:55.805Z,72.21
2022-10-19T15:27:28.830Z,72.10
2022-10-19T15:30:18.676Z,72.20
2022-10-19T15:32:51.444Z,72.81
2022-10-19T15:35:23.259Z,73.37
2022-10-19T15:37:50.779Z,73.76
2022-10-19T15:40:25.825Z,73.87
2022-10-19T15:42:52.521Z,74.57
2022-10-19T15:45:38.112Z,74.70
2022-10-19T15:48:10.368Z,74.95
2022-10-19T15:50:42.475Z,75.23
2022-10-19T15:53:08.909Z,75.59
2022-10-19T15:55:35.508Z,75.92
2022-10-19T15:58:02.307Z,76.56
2022-10-19T16:00:29.988Z,76.65
2022-10-19T16:02:56.442Z,76.94
2022-10-19T16:05:23.218Z,77.35
2022-10-19T16:07:50.175Z,77.27
2022-10-19T16:10:20.438Z,77.65
2022-10-19T16:12:47.102Z,77.84
2022-10-19T16:15:22.237Z,78.06
2022-10-19T16:17:59.926Z,78.45
2022-10-19T16:20:28.894Z,78.59
2022-10-19T16:22:55.483Z,78.57
2022-10-19T16:25:22.015Z,78.80
2022-10-19T16:27:48.666Z,79.14
2022-10-19T16:30:15.086Z,79.56
2022-10-19T16:35:10.040Z,79.53
2022-10-19T16:37:37.140Z,80.09
2022-10-19T16:40:05.353Z,79.83
2022-10-19T16:42:32.120Z,80.12
2022-10-19T16:44:58.929Z,80.40
2022-10-19T16:47:25.545Z,80.52
2022-10-19T16:50:01.153Z,80.29
2022-10-19T16:52:29.305Z,80.69
2022-10-19T16:54:56.759Z,80.71
2022-10-19T16:57:23.366Z,81.01
2022-10-19T17:02:23.098Z,81.32
2022-10-19T17:04:49.717Z,81.37
2022-10-19T17:07:16.221Z,81.74
2022-10-19T17:09:43.369Z,81.78
2022-10-19T17:12:10.527Z,81.72
2022-10-19T17:14:39.852Z,81.50
2022-10-19T17:17:06.780Z,81.46
2022-10-19T17:19:34.092Z,81.95
2022-10-19T17:22:02.135Z,82.32
2022-10-19T17:24:29.098Z,82.23
2022-10-19T17:26:55.943Z,82.31
2022-10-19T17:29:23.196Z,82.47
2022-10-19T17:31:49.919Z,82.48
2022-10-19T17:34:16.760Z,82.65
2022-10-19T17:36:46.913Z,82.74
2022-10-19T17:39:20.392Z,82.54
2022-10-19T17:41:49.010Z,82.63
2022-10-19T17:44:16.318Z,82.96
2022-10-19T17:46:42.880Z,83.03
2022-10-19T17:49:10.252Z,82.83
2022-10-19T17:51:37.959Z,82.98
2022-10-19T17:54:10.885Z,83.38
2022-10-19T17:56:38.961Z,83.10
2022-10-19T17:59:07.914Z,83.77
2022-10-19T18:01:35.021Z,83.12
2022-10-19T18:04:01.558Z,83.45
2022-10-19T18:06:33.970Z,83.90
2022-10-19T18:09:02.118Z,83.65
2022-10-19T18:11:32.024Z,83.74
2022-10-19T18:14:00.784Z,83.86
2022-10-19T18:16:37.006Z,83.88
2022-10-19T18:19:04.935Z,83.42
2022-10-19T18:21:34.901Z,83.68
2022-10-19T18:24:02.826Z,83.82
2022-10-19T18:26:31.893Z,83.71
2022-10-19T18:28:59.221Z,83.85
2022-10-19T18:31:29.372Z,83.87
2022-10-19T18:34:05.691Z,83.76
2022-10-19T18:36:33.241Z,84.41
2022-10-19T18:39:01.873Z,84.14
2022-10-19T18:41:29.767Z,84.31
2022-10-19T18:44:05.106Z,84.19
2022-10-19T18:46:36.543Z,84.32
2022-10-19T18:49:05.677Z,84.15
2022-10-19T18:51:32.720Z,84.21
2022-10-19T18:53:59.406Z,84.16
2022-10-19T18:56:26.598Z,84.75
2022-10-19T18:58:53.262Z,84.67
2022-10-19T19:01:26.854Z,84.34
2022-10-19T19:03:56.408Z,84.53
2022-10-19T19:06:30.269Z,84.73
2022-10-19T19:08:59.137Z,85.14
2022-10-19T19:11:34.269Z,84.66
2022-10-19T19:14:11.904Z,84.76
2022-10-19T19:16:39.759Z,84.63
2022-10-19T19:19:07.298Z,85.30
2022-10-19T19:21:35.556Z,85.13
2022-10-19T19:24:05.221Z,85.60
2022-10-19T19:26:34.330Z,85.38
2022-10-19T19:29:00.798Z,85.50
2022-10-19T19:31:27.452Z,85.92
2022-10-19T19:33:54.115Z,85.84
2022-10-19T19:36:20.923Z,86.18
2022-10-19T19:38:49.049Z,85.94
2022-10-19T19:41:16.417Z,86.01
2022-10-19T19:43:43.673Z,86.11
2022-10-19T19:46:16.708Z,86.20
2022-10-19T19:48:46.395Z,86.41
2022-10-19T19:51:15.427Z,86.85
2022-10-19T19:53:42.632Z,86.64
2022-10-19T19:56:11.570Z,86.73
2022-10-19T19:58:38.527Z,87.05
2022-10-19T20:01:13.593Z,87.23
2022-10-19T20:03:41.134Z,87.18
2022-10-19T20:06:08.314Z,87.28
2022-10-19T20:08:36.355Z,87.41
2022-10-19T20:11:05.777Z,87.45
2022-10-19T20:13:32.996Z,87.51
2022-10-19T20:16:02.549Z,87.53
2022-10-19T20:18:29.654Z,87.79
2022-10-19T20:21:01.188Z,87.61
2022-10-19T20:23:28.491Z,88.04
2022-10-19T20:25:56.308Z,87.72
2022-10-19T20:28:24.719Z,88.03
2022-10-19T20:31:04.751Z,87.86
2022-10-19T20:33:32.722Z,87.85
2022-10-19T20:36:13.287Z,87.93
2022-10-19T20:38:40.610Z,88.23
2022-10-19T20:41:09.243Z,88.21
2022-10-19T20:43:37.424Z,88.49
2022-10-19T20:46:24.715Z,88.75
2022-10-19T20:48:52.451Z,88.71
2022-10-19T20:51:30.567Z,88.94
2022-10-19T20:54:00.535Z,88.82
2022-10-19T20:56:30.253Z,88.98
2022-10-19T21:01:31.764Z,89.21
2022-10-19T21:04:01.513Z,89.43
2022-10-19T21:06:30.163Z,89.77
2022-10-19T21:08:58.299Z,89.49
2022-10-19T21:11:27.976Z,89.47
2022-10-19T21:13:56.901Z,89.71
2022-10-19T21:16:27.462Z,89.66
2022-10-19T21:18:54.502Z,90.02
2022-10-19T21:21:24.219Z,89.83
2022-10-19T21:23:53.840Z,90.02
2022-10-19T21:26:20.634Z,89.81
2022-10-19T21:28:49.388Z,89.84
2022-10-19T21:31:17.238Z,89.97
2022-10-19T21:33:44.108Z,90.14
2022-10-19T21:36:12.078Z,90.07
2022-10-19T21:38:39.067Z,90.17
2022-10-19T21:41:08.778Z,90.49
2022-10-19T21:43:35.551Z,90.17
2022-10-19T21:46:07.286Z,89.93
2022-10-19T21:48:34.563Z,90.03
2022-10-19T21:51:10.100Z,89.74
2022-10-19T21:53:36.508Z,90.05
2022-10-19T21:56:02.991Z,89.92
2022-10-19T21:58:29.417Z,90.19
2022-10-19T22:01:04.007Z,90.53
2022-10-19T22:03:30.357Z,90.64
2022-10-19T22:05:56.791Z,90.48
2022-10-19T22:08:23.371Z,90.59
2022-10-19T22:10:49.850Z,90.55
2022-10-19T22:13:16.335Z,90.42
2022-10-19T22:15:42.926Z,90.68
2022-10-19T22:18:09.426Z,91.06
2022-10-19T22:20:36.665Z,91.07
2022-10-19T22:23:04.710Z,91.54
2022-10-19T22:25:32.464Z,91.51
2022-10-19T22:27:59.272Z,91.54
2022-10-19T22:30:25.835Z,91.24
2022-10-19T22:32:52.959Z,91.47
2022-10-19T22:35:19.651Z,91.40
2022-10-19T22:37:46.251Z,91.60
2022-10-19T22:40:13.335Z,91.85
2022-10-19T22:42:39.796Z,91.94
2022-10-19T22:45:06.848Z,91.76
2022-10-19T22:47:33.300Z,91.84
2022-10-19T22:49:59.746Z,91.91
2022-10-19T22:52:26.210Z,91.84
2022-10-19T22:54:52.740Z,92.23
2022-10-19T22:57:19.195Z,92.12
2022-10-19T22:59:45.705Z,92.67
2022-10-19T23:02:12.202Z,92.58
2022-10-19T23:04:38.665Z,93.21
2022-10-19T23:07:05.233Z,93.30
2022-10-19T23:09:31.791Z,93.35
2022-10-19T23:11:58.262Z,93.21
2022-10-19T23:14:24.776Z,93.33
2022-10-19T23:16:51.253Z,93.45
2022-10-19T23:19:17.729Z,93.50
2022-10-19T23:21:44.240Z,93.69
2022-10-19T23:24:10.784Z,93.35
2022-10-19T23:26:37.492Z,93.48
2022-10-19T23:29:03.996Z,93.23
2022-10-19T23:31:31.038Z,93.09
2022-10-19T23:33:57.612Z,93.43
2022-10-19T23:36:27.048Z,92.93
2022-10-19T23:38:55.203Z,93.25
2022-10-19T23:41:22.312Z,93.27
2022-10-19T23:43:49.409Z,93.47
2022-10-19T23:46:16.237Z,94.08
2022-10-19T23:48:42.825Z,93.73
2022-10-19T23:51:18.002Z,94.40
2022-10-19T23:53:46.609Z,93.93
2022-10-19T23:56:18.396Z,93.96
2022-10-19T23:58:45.469Z,94.16
